sensor_id;sensor_type;location;lat;lon;timestamp;P1;durP1;ratioP1;P2;durP2;ratioP2
2225;SDS011;1119;48.288;8.726;2023-01-15T00:00:34;2.43;;;2.33;;
2225;SDS011;1119;48.288;8.726;2023-01-15T00:03:01;2.30;;;2.30;;
2225;SDS011;1119;48.288;8.726;2023-01-15T00:05:29;1.83;;;1.83;;
2225;SDS011;1119;48.288;8.726;2023-01-15T00:07:56;2.00;;;2.00;;
2225;SDS011;1119;48.288;8.726;2023-01-15T00:10:23;2.17;;;2.00;;
2225;SDS011;1119;48.288;8.726;2023-01-15T00:12:50;2.10;;;2.10;;
2225;SDS011;1119;48.288;8.726;2023-01-15T00:15:17;2.00;;;2.00;;
2225;SDS011;1119;48.288;8.726;2023-01-15T00:17:46;2.20;;;2.10;;
2225;SDS011;1119;48.288;8.726;2023-01-15T00:20:13;2.10;;;2.00;;
2225;SDS011;1119;48.288;8.726;2023-01-15T00:22:41;2.40;;;2.10;;
2225;SDS011;1119;48.288;8.726;2023-01-15T00:25:08;2.07;;;2.07;;
2225;SDS011;1119;48.288;8.726;2023-01-15T00:27:54;2.23;;;2.13;;
2225;SDS011;1119;48.288;8.726;2023-01-15T00:30:21;2.00;;;2.00;;
2225;SDS011;1119;48.288;8.726;2023-01-15T00:32:50;1.73;;;1.73;;
2225;SDS011;1119;48.288;8.726;2023-01-15T00:35:21;2.40;;;2.20;;
2225;SDS011;1119;48.288;8.726;2023-01-15T00:37:49;2.20;;;2.10;;
2225;SDS011;1119;48.288;8.726;2023-01-15T00:40:18;2.07;;;2.07;;
2225;SDS011;1119;48.288;8.726;2023-01-15T00:42:46;2.00;;;2.00;;
2225;SDS011;1119;48.288;8.726;2023-01-15T00:45:13;2.30;;;2.30;;
2225;SDS011;1119;48.288;8.726;2023-01-15T00:47:41;4.70;;;2.00;;
2225;SDS011;1119;48.288;8.726;2023-01-15T00:50:14;2.70;;;2.20;;
2225;SDS011;1119;48.288;8.726;2023-01-15T00:52:41;2.10;;;2.10;;
2225;SDS011;1119;48.288;8.726;2023-01-15T00:55:08;1.93;;;1.87;;
2225;SDS011;1119;48.288;8.726;2023-01-15T00:57:37;1.90;;;1.80;;
2225;SDS011;1119;48.288;8.726;2023-01-15T01:00:04;2.10;;;2.10;;
2225;SDS011;1119;48.288;8.726;2023-01-15T01:02:33;2.10;;;2.00;;
2225;SDS011;1119;48.288;8.726;2023-01-15T01:05:00;2.30;;;2.20;;
2225;SDS011;1119;48.288;8.726;2023-01-15T01:07:30;1.90;;;1.90;;
2225;SDS011;1119;48.288;8.726;2023-01-15T01:09:57;2.10;;;2.00;;
2225;SDS011;1119;48.288;8.726;2023-01-15T01:12:24;2.50;;;2.50;;
2225;SDS011;1119;48.288;8.726;2023-01-15T01:14:53;2.17;;;2.17;;
2225;SDS011;1119;48.288;8.726;2023-01-15T01:17:21;2.60;;;2.50;;
2225;SDS011;1119;48.288;8.726;2023-01-15T01:19:48;2.70;;;2.60;;
2225;SDS011;1119;48.288;8.726;2023-01-15T01:22:15;2.03;;;2.03;;
2225;SDS011;1119;48.288;8.726;2023-01-15T01:24:44;2.70;;;2.60;;
2225;SDS011;1119;48.288;8.726;2023-01-15T01:27:11;3.40;;;3.30;;
2225;SDS011;1119;48.288;8.726;2023-01-15T01:29:38;2.23;;;2.23;;
2225;SDS011;1119;48.288;8.726;2023-01-15T01:32:05;2.40;;;2.40;;
2225;SDS011;1119;48.288;8.726;2023-01-15T01:34:33;2.43;;;2.33;;
2225;SDS011;1119;48.288;8.726;2023-01-15T01:37:00;2.60;;;2.50;;
2225;SDS011;1119;48.288;8.726;2023-01-15T01:39:28;2.47;;;2.40;;
2225;SDS011;1119;48.288;8.726;2023-01-15T01:41:56;2.53;;;2.43;;
2225;SDS011;1119;48.288;8.726;2023-01-15T01:47:33;2.20;;;2.20;;
2225;SDS011;1119;48.288;8.726;2023-01-15T01:50:03;2.80;;;2.53;;
2225;SDS011;1119;48.288;8.726;2023-01-15T01:52:35;2.80;;;2.70;;
2225;SDS011;1119;48.288;8.726;2023-01-15T01:55:07;2.83;;;2.63;;
2225;SDS011;1119;48.288;8.726;2023-01-15T01:57:37;2.50;;;2.47;;
2225;SDS011;1119;48.288;8.726;2023-01-15T02:00:06;2.93;;;2.73;;
2225;SDS011;1119;48.288;8.726;2023-01-15T02:02:39;2.50;;;2.50;;
2225;SDS011;1119;48.288;8.726;2023-01-15T02:05:10;2.50;;;2.50;;
2225;SDS011;1119;48.288;8.726;2023-01-15T02:07:42;2.37;;;2.37;;
2225;SDS011;1119;48.288;8.726;2023-01-15T02:10:13;2.13;;;2.13;;
2225;SDS011;1119;48.288;8.726;2023-01-15T02:12:44;2.33;;;2.20;;
2225;SDS011;1119;48.288;8.726;2023-01-15T02:15:16;2.10;;;2.10;;
2225;SDS011;1119;48.288;8.726;2023-01-15T02:17:53;2.07;;;2.07;;
2225;SDS011;1119;48.288;8.726;2023-01-15T02:20:29;2.03;;;2.03;;
2225;SDS011;1119;48.288;8.726;2023-01-15T02:23:08;2.20;;;2.20;;
2225;SDS011;1119;48.288;8.726;2023-01-15T02:26:01;2.33;;;2.33;;
2225;SDS011;1119;48.288;8.726;2023-01-15T02:28:50;1.97;;;1.97;;
2225;SDS011;1119;48.288;8.726;2023-01-15T02:31:22;2.17;;;2.17;;
2225;SDS011;1119;48.288;8.726;2023-01-15T02:38:21;2.37;;;2.37;;
2225;SDS011;1119;48.288;8.726;2023-01-15T02:40:53;2.50;;;2.50;;
2225;SDS011;1119;48.288;8.726;2023-01-15T02:43:25;2.20;;;2.20;;
2225;SDS011;1119;48.288;8.726;2023-01-15T02:45:57;1.97;;;1.97;;
2225;SDS011;1119;48.288;8.726;2023-01-15T02:48:28;2.27;;;2.27;;
2225;SDS011;1119;48.288;8.726;2023-01-15T02:51:00;2.37;;;2.30;;
2225;SDS011;1119;48.288;8.726;2023-01-15T02:53:34;2.97;;;2.63;;
2225;SDS011;1119;48.288;8.726;2023-01-15T02:56:06;2.47;;;2.47;;
2225;SDS011;1119;48.288;8.726;2023-01-15T02:58:44;2.30;;;2.30;;
2225;SDS011;1119;48.288;8.726;2023-01-15T03:04:55;2.40;;;2.40;;
2225;SDS011;1119;48.288;8.726;2023-01-15T03:07:31;2.20;;;2.20;;
2225;SDS011;1119;48.288;8.726;2023-01-15T03:10:03;2.47;;;2.47;;
2225;SDS011;1119;48.288;8.726;2023-01-15T03:12:35;2.70;;;2.70;;
2225;SDS011;1119;48.288;8.726;2023-01-15T03:15:25;2.57;;;2.40;;
2225;SDS011;1119;48.288;8.726;2023-01-15T03:18:19;2.33;;;2.33;;
2225;SDS011;1119;48.288;8.726;2023-01-15T03:20:50;2.40;;;2.40;;
2225;SDS011;1119;48.288;8.726;2023-01-15T03:23:23;2.40;;;2.40;;
2225;SDS011;1119;48.288;8.726;2023-01-15T03:25:54;2.63;;;2.63;;
2225;SDS011;1119;48.288;8.726;2023-01-15T03:28:22;2.33;;;2.33;;
2225;SDS011;1119;48.288;8.726;2023-01-15T03:30:53;2.07;;;2.07;;
2225;SDS011;1119;48.288;8.726;2023-01-15T03:33:21;2.07;;;2.07;;
2225;SDS011;1119;48.288;8.726;2023-01-15T03:35:51;2.20;;;2.20;;
2225;SDS011;1119;48.288;8.726;2023-01-15T03:38:29;2.97;;;2.87;;
2225;SDS011;1119;48.288;8.726;2023-01-15T03:41:03;2.50;;;2.40;;
2225;SDS011;1119;48.288;8.726;2023-01-15T03:43:45;4.20;;;4.00;;
2225;SDS011;1119;48.288;8.726;2023-01-15T03:46:26;2.57;;;2.57;;
2225;SDS011;1119;48.288;8.726;2023-01-15T03:49:06;3.27;;;3.17;;
2225;SDS011;1119;48.288;8.726;2023-01-15T03:51:48;2.47;;;2.47;;
2225;SDS011;1119;48.288;8.726;2023-01-15T03:54:30;2.57;;;2.57;;
2225;SDS011;1119;48.288;8.726;2023-01-15T03:57:07;2.80;;;2.80;;
2225;SDS011;1119;48.288;8.726;2023-01-15T03:59:43;2.30;;;2.30;;
2225;SDS011;1119;48.288;8.726;2023-01-15T04:02:15;2.63;;;2.53;;
2225;SDS011;1119;48.288;8.726;2023-01-15T04:04:47;2.10;;;2.10;;
2225;SDS011;1119;48.288;8.726;2023-01-15T04:07:18;2.23;;;2.23;;
2225;SDS011;1119;48.288;8.726;2023-01-15T04:09:47;2.60;;;2.50;;
2225;SDS011;1119;48.288;8.726;2023-01-15T04:12:15;2.23;;;2.23;;
2225;SDS011;1119;48.288;8.726;2023-01-15T04:14:46;2.17;;;2.17;;
2225;SDS011;1119;48.288;8.726;2023-01-15T04:17:19;2.40;;;2.40;;
2225;SDS011;1119;48.288;8.726;2023-01-15T04:19:47;2.50;;;2.50;;
2225;SDS011;1119;48.288;8.726;2023-01-15T04:22:15;10.33;;;3.10;;
2225;SDS011;1119;48.288;8.726;2023-01-15T04:24:45;2.43;;;2.43;;
2225;SDS011;1119;48.288;8.726;2023-01-15T04:27:12;2.50;;;2.50;;
2225;SDS011;1119;48.288;8.726;2023-01-15T04:29:40;2.20;;;2.20;;
2225;SDS011;1119;48.288;8.726;2023-01-15T04:32:07;2.57;;;2.57;;
2225;SDS011;1119;48.288;8.726;2023-01-15T04:34:34;7.63;;;3.43;;
2225;SDS011;1119;48.288;8.726;2023-01-15T04:37:01;2.07;;;2.07;;
2225;SDS011;1119;48.288;8.726;2023-01-15T04:39:29;2.40;;;2.40;;
2225;SDS011;1119;48.288;8.726;2023-01-15T04:41:58;2.00;;;2.00;;
2225;SDS011;1119;48.288;8.726;2023-01-15T04:44:43;2.30;;;2.30;;
2225;SDS011;1119;48.288;8.726;2023-01-15T04:47:10;2.10;;;2.10;;
2225;SDS011;1119;48.288;8.726;2023-01-15T04:49:38;2.47;;;2.37;;
2225;SDS011;1119;48.288;8.726;2023-01-15T04:52:05;2.40;;;2.40;;
2225;SDS011;1119;48.288;8.726;2023-01-15T04:54:33;2.50;;;2.50;;
2225;SDS011;1119;48.288;8.726;2023-01-15T04:57:01;2.20;;;2.20;;
2225;SDS011;1119;48.288;8.726;2023-01-15T04:59:29;3.20;;;3.07;;
2225;SDS011;1119;48.288;8.726;2023-01-15T05:01:56;2.30;;;2.30;;
2225;SDS011;1119;48.288;8.726;2023-01-15T05:04:23;2.10;;;2.10;;
2225;SDS011;1119;48.288;8.726;2023-01-15T05:06:51;2.40;;;2.40;;
2225;SDS011;1119;48.288;8.726;2023-01-15T05:09:18;2.40;;;2.40;;
2225;SDS011;1119;48.288;8.726;2023-01-15T05:11:45;2.80;;;2.80;;
2225;SDS011;1119;48.288;8.726;2023-01-15T05:14:14;2.57;;;2.57;;
2225;SDS011;1119;48.288;8.726;2023-01-15T05:16:42;2.50;;;2.50;;
2225;SDS011;1119;48.288;8.726;2023-01-15T05:19:10;2.30;;;2.30;;
2225;SDS011;1119;48.288;8.726;2023-01-15T05:21:39;2.50;;;2.50;;
2225;SDS011;1119;48.288;8.726;2023-01-15T05:24:09;2.70;;;2.60;;
2225;SDS011;1119;48.288;8.726;2023-01-15T05:26:41;2.50;;;2.50;;
2225;SDS011;1119;48.288;8.726;2023-01-15T05:29:09;2.40;;;2.40;;
2225;SDS011;1119;48.288;8.726;2023-01-15T05:31:40;2.40;;;2.40;;
2225;SDS011;1119;48.288;8.726;2023-01-15T05:34:09;2.03;;;2.03;;
2225;SDS011;1119;48.288;8.726;2023-01-15T05:36:37;2.53;;;2.53;;
2225;SDS011;1119;48.288;8.726;2023-01-15T05:39:04;2.40;;;2.40;;
2225;SDS011;1119;48.288;8.726;2023-01-15T05:41:32;2.57;;;2.57;;
2225;SDS011;1119;48.288;8.726;2023-01-15T05:44:15;2.50;;;2.50;;
2225;SDS011;1119;48.288;8.726;2023-01-15T05:46:46;2.30;;;2.30;;
2225;SDS011;1119;48.288;8.726;2023-01-15T05:49:15;2.67;;;2.67;;
2225;SDS011;1119;48.288;8.726;2023-01-15T05:51:45;2.50;;;2.50;;
2225;SDS011;1119;48.288;8.726;2023-01-15T05:54:14;2.10;;;2.10;;
2225;SDS011;1119;48.288;8.726;2023-01-15T05:56:43;3.13;;;2.40;;
2225;SDS011;1119;48.288;8.726;2023-01-15T05:59:11;2.43;;;2.43;;
2225;SDS011;1119;48.288;8.726;2023-01-15T06:01:39;2.50;;;2.50;;
2225;SDS011;1119;48.288;8.726;2023-01-15T06:04:09;2.40;;;2.40;;
2225;SDS011;1119;48.288;8.726;2023-01-15T06:06:38;2.13;;;2.13;;
2225;SDS011;1119;48.288;8.726;2023-01-15T06:09:07;2.43;;;2.43;;
2225;SDS011;1119;48.288;8.726;2023-01-15T06:11:34;2.60;;;2.60;;
2225;SDS011;1119;48.288;8.726;2023-01-15T06:14:02;2.07;;;2.07;;
2225;SDS011;1119;48.288;8.726;2023-01-15T06:16:29;2.67;;;2.67;;
2225;SDS011;1119;48.288;8.726;2023-01-15T06:18:58;2.60;;;2.60;;
2225;SDS011;1119;48.288;8.726;2023-01-15T06:21:29;2.93;;;2.93;;
2225;SDS011;1119;48.288;8.726;2023-01-15T06:23:58;2.53;;;2.53;;
2225;SDS011;1119;48.288;8.726;2023-01-15T06:26:25;2.30;;;2.30;;
2225;SDS011;1119;48.288;8.726;2023-01-15T06:28:53;2.20;;;2.20;;
2225;SDS011;1119;48.288;8.726;2023-01-15T06:31:22;2.40;;;2.40;;
2225;SDS011;1119;48.288;8.726;2023-01-15T06:33:51;2.27;;;2.27;;
2225;SDS011;1119;48.288;8.726;2023-01-15T06:36:19;2.30;;;2.30;;
2225;SDS011;1119;48.288;8.726;2023-01-15T06:38:50;2.80;;;2.70;;
2225;SDS011;1119;48.288;8.726;2023-01-15T06:41:19;2.50;;;2.30;;
2225;SDS011;1119;48.288;8.726;2023-01-15T06:44:09;2.47;;;2.40;;
2225;SDS011;1119;48.288;8.726;2023-01-15T06:46:56;2.37;;;2.37;;
2225;SDS011;1119;48.288;8.726;2023-01-15T06:49:41;2.63;;;2.63;;
2225;SDS011;1119;48.288;8.726;2023-01-15T06:52:09;2.73;;;2.73;;
2225;SDS011;1119;48.288;8.726;2023-01-15T06:54:37;2.37;;;2.37;;
2225;SDS011;1119;48.288;8.726;2023-01-15T06:57:05;2.60;;;2.60;;
2225;SDS011;1119;48.288;8.726;2023-01-15T06:59:33;2.40;;;2.40;;
2225;SDS011;1119;48.288;8.726;2023-01-15T07:02:00;2.80;;;2.70;;
2225;SDS011;1119;48.288;8.726;2023-01-15T07:04:28;2.43;;;2.43;;
2225;SDS011;1119;48.288;8.726;2023-01-15T07:06:56;2.50;;;2.50;;
2225;SDS011;1119;48.288;8.726;2023-01-15T07:09:23;2.60;;;2.40;;
2225;SDS011;1119;48.288;8.726;2023-01-15T07:11:52;2.80;;;2.70;;
2225;SDS011;1119;48.288;8.726;2023-01-15T07:14:20;2.50;;;2.50;;
2225;SDS011;1119;48.288;8.726;2023-01-15T07:16:49;2.57;;;2.47;;
2225;SDS011;1119;48.288;8.726;2023-01-15T07:19:17;3.07;;;2.90;;
2225;SDS011;1119;48.288;8.726;2023-01-15T07:21:45;4.43;;;3.37;;
2225;SDS011;1119;48.288;8.726;2023-01-15T07:24:13;8.53;;;6.10;;
2225;SDS011;1119;48.288;8.726;2023-01-15T07:26:40;6.17;;;5.53;;
2225;SDS011;1119;48.288;8.726;2023-01-15T07:29:11;4.03;;;3.83;;
2225;SDS011;1119;48.288;8.726;2023-01-15T07:31:38;5.10;;;4.50;;
2225;SDS011;1119;48.288;8.726;2023-01-15T07:34:06;4.80;;;4.37;;
2225;SDS011;1119;48.288;8.726;2023-01-15T07:36:34;4.63;;;3.50;;
2225;SDS011;1119;48.288;8.726;2023-01-15T07:39:02;7.10;;;4.77;;
2225;SDS011;1119;48.288;8.726;2023-01-15T07:41:30;4.40;;;4.00;;
2225;SDS011;1119;48.288;8.726;2023-01-15T07:44:17;8.63;;;6.73;;
2225;SDS011;1119;48.288;8.726;2023-01-15T07:47:01;8.70;;;6.03;;
2225;SDS011;1119;48.288;8.726;2023-01-15T07:49:47;9.03;;;8.00;;
2225;SDS011;1119;48.288;8.726;2023-01-15T07:52:17;14.23;;;8.47;;
2225;SDS011;1119;48.288;8.726;2023-01-15T07:54:47;8.57;;;7.70;;
2225;SDS011;1119;48.288;8.726;2023-01-15T07:57:15;7.23;;;6.53;;
2225;SDS011;1119;48.288;8.726;2023-01-15T07:59:47;18.63;;;13.83;;
2225;SDS011;1119;48.288;8.726;2023-01-15T08:02:15;6.87;;;6.27;;
2225;SDS011;1119;48.288;8.726;2023-01-15T08:04:42;29.83;;;17.83;;
2225;SDS011;1119;48.288;8.726;2023-01-15T08:07:12;13.03;;;8.17;;
2225;SDS011;1119;48.288;8.726;2023-01-15T08:09:40;2.47;;;2.47;;
2225;SDS011;1119;48.288;8.726;2023-01-15T08:12:08;2.47;;;2.37;;
2225;SDS011;1119;48.288;8.726;2023-01-15T08:14:55;3.87;;;3.57;;
2225;SDS011;1119;48.288;8.726;2023-01-15T08:17:42;3.07;;;2.87;;
2225;SDS011;1119;48.288;8.726;2023-01-15T08:20:12;4.40;;;4.10;;
2225;SDS011;1119;48.288;8.726;2023-01-15T08:22:41;2.43;;;2.33;;
2225;SDS011;1119;48.288;8.726;2023-01-15T08:25:10;2.60;;;2.50;;
2225;SDS011;1119;48.288;8.726;2023-01-15T08:27:38;4.00;;;2.60;;
2225;SDS011;1119;48.288;8.726;2023-01-15T08:30:08;2.20;;;2.20;;
2225;SDS011;1119;48.288;8.726;2023-01-15T08:32:39;3.00;;;2.90;;
2225;SDS011;1119;48.288;8.726;2023-01-15T08:35:07;3.47;;;3.27;;
2225;SDS011;1119;48.288;8.726;2023-01-15T08:37:35;3.30;;;3.10;;
2225;SDS011;1119;48.288;8.726;2023-01-15T08:40:02;3.10;;;3.00;;
2225;SDS011;1119;48.288;8.726;2023-01-15T08:42:32;3.60;;;3.40;;
2225;SDS011;1119;48.288;8.726;2023-01-15T08:44:59;3.00;;;2.87;;
2225;SDS011;1119;48.288;8.726;2023-01-15T08:47:28;3.43;;;3.33;;
2225;SDS011;1119;48.288;8.726;2023-01-15T08:49:56;1.80;;;1.80;;
2225;SDS011;1119;48.288;8.726;2023-01-15T08:52:23;2.90;;;2.80;;
2225;SDS011;1119;48.288;8.726;2023-01-15T08:54:51;3.37;;;3.20;;
2225;SDS011;1119;48.288;8.726;2023-01-15T08:57:18;3.97;;;3.77;;
2225;SDS011;1119;48.288;8.726;2023-01-15T08:59:45;3.73;;;3.53;;
2225;SDS011;1119;48.288;8.726;2023-01-15T09:02:13;3.47;;;3.27;;
2225;SDS011;1119;48.288;8.726;2023-01-15T09:04:43;2.23;;;2.23;;
2225;SDS011;1119;48.288;8.726;2023-01-15T09:07:10;1.90;;;1.90;;
2225;SDS011;1119;48.288;8.726;2023-01-15T09:09:38;2.00;;;2.00;;
2225;SDS011;1119;48.288;8.726;2023-01-15T09:12:05;2.10;;;2.10;;
2225;SDS011;1119;48.288;8.726;2023-01-15T09:14:33;3.03;;;2.93;;
2225;SDS011;1119;48.288;8.726;2023-01-15T09:17:00;2.40;;;2.30;;
2225;SDS011;1119;48.288;8.726;2023-01-15T09:19:27;1.83;;;1.83;;
2225;SDS011;1119;48.288;8.726;2023-01-15T09:21:56;1.90;;;1.90;;
2225;SDS011;1119;48.288;8.726;2023-01-15T09:24:23;2.00;;;1.90;;
2225;SDS011;1119;48.288;8.726;2023-01-15T09:26:50;1.60;;;1.60;;
2225;SDS011;1119;48.288;8.726;2023-01-15T09:29:18;2.90;;;2.70;;
2225;SDS011;1119;48.288;8.726;2023-01-15T09:31:45;2.17;;;2.17;;
2225;SDS011;1119;48.288;8.726;2023-01-15T09:34:12;2.33;;;2.23;;
2225;SDS011;1119;48.288;8.726;2023-01-15T09:36:39;6.47;;;5.93;;
2225;SDS011;1119;48.288;8.726;2023-01-15T09:39:08;1.87;;;1.77;;
2225;SDS011;1119;48.288;8.726;2023-01-15T09:41:44;2.73;;;2.63;;
2225;SDS011;1119;48.288;8.726;2023-01-15T09:44:36;3.27;;;3.00;;
2225;SDS011;1119;48.288;8.726;2023-01-15T09:47:15;1.80;;;1.80;;
2225;SDS011;1119;48.288;8.726;2023-01-15T09:49:50;2.50;;;2.40;;
2225;SDS011;1119;48.288;8.726;2023-01-15T09:52:31;1.80;;;1.80;;
2225;SDS011;1119;48.288;8.726;2023-01-15T09:55:32;2.03;;;1.97;;
2225;SDS011;1119;48.288;8.726;2023-01-15T09:58:04;2.20;;;2.10;;
2225;SDS011;1119;48.288;8.726;2023-01-15T10:00:37;4.20;;;3.57;;
2225;SDS011;1119;48.288;8.726;2023-01-15T10:03:12;1.80;;;1.80;;
2225;SDS011;1119;48.288;8.726;2023-01-15T10:05:54;2.20;;;2.20;;
2225;SDS011;1119;48.288;8.726;2023-01-15T10:08:31;2.20;;;2.20;;
2225;SDS011;1119;48.288;8.726;2023-01-15T10:11:05;1.90;;;1.90;;
2225;SDS011;1119;48.288;8.726;2023-01-15T10:14:10;3.03;;;2.93;;
2225;SDS011;1119;48.288;8.726;2023-01-15T10:16:42;2.53;;;2.53;;
2225;SDS011;1119;48.288;8.726;2023-01-15T10:19:09;2.10;;;2.10;;
2225;SDS011;1119;48.288;8.726;2023-01-15T10:21:38;2.20;;;2.20;;
2225;SDS011;1119;48.288;8.726;2023-01-15T10:24:16;2.30;;;2.20;;
2225;SDS011;1119;48.288;8.726;2023-01-15T10:26:49;3.03;;;2.20;;
2225;SDS011;1119;48.288;8.726;2023-01-15T10:29:22;2.40;;;2.30;;
2225;SDS011;1119;48.288;8.726;2023-01-15T10:31:52;2.00;;;2.00;;
2225;SDS011;1119;48.288;8.726;2023-01-15T10:34:33;2.40;;;2.20;;
2225;SDS011;1119;48.288;8.726;2023-01-15T10:37:25;2.37;;;2.37;;
2225;SDS011;1119;48.288;8.726;2023-01-15T10:40:04;3.53;;;2.90;;
2225;SDS011;1119;48.288;8.726;2023-01-15T10:42:47;2.10;;;2.00;;
2225;SDS011;1119;48.288;8.726;2023-01-15T10:45:23;2.43;;;2.40;;
2225;SDS011;1119;48.288;8.726;2023-01-15T10:47:54;2.30;;;2.20;;
2225;SDS011;1119;48.288;8.726;2023-01-15T10:50:29;2.20;;;2.10;;
2225;SDS011;1119;48.288;8.726;2023-01-15T10:53:00;1.90;;;1.90;;
2225;SDS011;1119;48.288;8.726;2023-01-15T10:55:36;2.70;;;2.60;;
2225;SDS011;1119;48.288;8.726;2023-01-15T10:58:10;1.87;;;1.80;;
2225;SDS011;1119;48.288;8.726;2023-01-15T11:00:43;2.05;;;2.05;;
2225;SDS011;1119;48.288;8.726;2023-01-15T11:03:18;2.10;;;2.10;;
2225;SDS011;1119;48.288;8.726;2023-01-15T11:05:48;2.30;;;2.20;;
2225;SDS011;1119;48.288;8.726;2023-01-15T11:08:18;1.60;;;1.60;;
2225;SDS011;1119;48.288;8.726;2023-01-15T11:10:50;2.30;;;2.20;;
2225;SDS011;1119;48.288;8.726;2023-01-15T11:13:21;1.80;;;1.80;;
2225;SDS011;1119;48.288;8.726;2023-01-15T11:16:12;1.90;;;1.90;;
2225;SDS011;1119;48.288;8.726;2023-01-15T11:19:00;3.30;;;3.10;;
2225;SDS011;1119;48.288;8.726;2023-01-15T11:21:45;1.90;;;1.90;;
2225;SDS011;1119;48.288;8.726;2023-01-15T11:24:14;2.50;;;2.40;;
2225;SDS011;1119;48.288;8.726;2023-01-15T11:26:44;1.90;;;1.90;;
2225;SDS011;1119;48.288;8.726;2023-01-15T11:29:19;2.80;;;2.70;;
2225;SDS011;1119;48.288;8.726;2023-01-15T11:31:55;1.67;;;1.67;;
2225;SDS011;1119;48.288;8.726;2023-01-15T11:34:22;3.67;;;3.43;;
2225;SDS011;1119;48.288;8.726;2023-01-15T11:36:59;2.37;;;2.27;;
2225;SDS011;1119;48.288;8.726;2023-01-15T11:39:27;4.03;;;3.83;;
2225;SDS011;1119;48.288;8.726;2023-01-15T11:41:59;2.90;;;2.80;;
2225;SDS011;1119;48.288;8.726;2023-01-15T11:44:53;2.80;;;2.60;;
2225;SDS011;1119;48.288;8.726;2023-01-15T11:47:48;1.77;;;1.77;;
2225;SDS011;1119;48.288;8.726;2023-01-15T11:50:34;4.40;;;3.00;;
2225;SDS011;1119;48.288;8.726;2023-01-15T11:53:12;2.10;;;2.10;;
2225;SDS011;1119;48.288;8.726;2023-01-15T11:55:54;1.90;;;1.90;;
2225;SDS011;1119;48.288;8.726;2023-01-15T11:58:26;2.60;;;2.55;;
2225;SDS011;1119;48.288;8.726;2023-01-15T12:00:56;2.50;;;2.40;;
2225;SDS011;1119;48.288;8.726;2023-01-15T12:03:24;2.47;;;2.37;;
2225;SDS011;1119;48.288;8.726;2023-01-15T12:05:56;2.38;;;2.28;;
2225;SDS011;1119;48.288;8.726;2023-01-15T12:08:37;2.30;;;2.17;;
2225;SDS011;1119;48.288;8.726;2023-01-15T12:11:16;2.33;;;2.22;;
2225;SDS011;1119;48.288;8.726;2023-01-15T12:14:20;2.10;;;2.10;;
2225;SDS011;1119;48.288;8.726;2023-01-15T12:17:47;2.10;;;2.10;;
2225;SDS011;1119;48.288;8.726;2023-01-15T12:20:27;2.20;;;2.20;;
2225;SDS011;1119;48.288;8.726;2023-01-15T12:23:17;2.17;;;2.13;;
2225;SDS011;1119;48.288;8.726;2023-01-15T12:26:04;1.60;;;1.60;;
2225;SDS011;1119;48.288;8.726;2023-01-15T12:28:43;2.47;;;2.37;;
2225;SDS011;1119;48.288;8.726;2023-01-15T12:31:21;1.60;;;1.60;;
2225;SDS011;1119;48.288;8.726;2023-01-15T12:33:56;2.00;;;1.90;;
2225;SDS011;1119;48.288;8.726;2023-01-15T12:36:30;2.17;;;2.17;;
2225;SDS011;1119;48.288;8.726;2023-01-15T12:39:06;2.00;;;1.90;;
2225;SDS011;1119;48.288;8.726;2023-01-15T12:41:44;2.22;;;2.13;;
2225;SDS011;1119;48.288;8.726;2023-01-15T12:44:32;2.30;;;2.20;;
2225;SDS011;1119;48.288;8.726;2023-01-15T12:47:21;1.98;;;1.95;;
2225;SDS011;1119;48.288;8.726;2023-01-15T12:49:56;2.50;;;2.40;;
2225;SDS011;1119;48.288;8.726;2023-01-15T12:52:38;2.33;;;2.23;;
2225;SDS011;1119;48.288;8.726;2023-01-15T12:55:12;5.60;;;2.65;;
2225;SDS011;1119;48.288;8.726;2023-01-15T12:57:43;3.20;;;3.10;;
2225;SDS011;1119;48.288;8.726;2023-01-15T13:00:13;2.50;;;2.30;;
2225;SDS011;1119;48.288;8.726;2023-01-15T13:02:55;2.80;;;2.60;;
2225;SDS011;1119;48.288;8.726;2023-01-15T13:05:35;2.90;;;2.70;;
2225;SDS011;1119;48.288;8.726;2023-01-15T13:08:09;2.17;;;2.17;;
2225;SDS011;1119;48.288;8.726;2023-01-15T13:10:43;3.45;;;2.17;;
2225;SDS011;1119;48.288;8.726;2023-01-15T13:13:15;2.70;;;2.47;;
2225;SDS011;1119;48.288;8.726;2023-01-15T13:15:48;3.13;;;2.83;;
2225;SDS011;1119;48.288;8.726;2023-01-15T13:18:30;2.93;;;2.73;;
2225;SDS011;1119;48.288;8.726;2023-01-15T13:21:11;1.92;;;1.92;;
2225;SDS011;1119;48.288;8.726;2023-01-15T13:23:44;2.63;;;2.53;;
2225;SDS011;1119;48.288;8.726;2023-01-15T13:26:43;7.25;;;6.50;;
2225;SDS011;1119;48.288;8.726;2023-01-15T13:29:24;6.67;;;4.00;;
2225;SDS011;1119;48.288;8.726;2023-01-15T13:32:09;3.88;;;3.67;;
2225;SDS011;1119;48.288;8.726;2023-01-15T13:34:41;3.70;;;3.40;;
2225;SDS011;1119;48.288;8.726;2023-01-15T13:37:22;2.58;;;2.38;;
2225;SDS011;1119;48.288;8.726;2023-01-15T13:39:56;3.33;;;2.37;;
2225;SDS011;1119;48.288;8.726;2023-01-15T13:42:28;2.55;;;2.45;;
2225;SDS011;1119;48.288;8.726;2023-01-15T13:45:06;3.45;;;2.70;;
2225;SDS011;1119;48.288;8.726;2023-01-15T13:47:52;2.60;;;2.50;;
2225;SDS011;1119;48.288;8.726;2023-01-15T13:50:26;1.90;;;1.80;;
2225;SDS011;1119;48.288;8.726;2023-01-15T13:53:01;2.63;;;2.53;;
2225;SDS011;1119;48.288;8.726;2023-01-15T13:55:35;2.80;;;2.60;;
2225;SDS011;1119;48.288;8.726;2023-01-15T13:58:21;2.50;;;2.40;;
2225;SDS011;1119;48.288;8.726;2023-01-15T14:03:56;2.10;;;2.00;;
2225;SDS011;1119;48.288;8.726;2023-01-15T14:06:38;2.38;;;2.28;;
2225;SDS011;1119;48.288;8.726;2023-01-15T14:09:13;1.90;;;1.80;;
2225;SDS011;1119;48.288;8.726;2023-01-15T14:11:59;2.70;;;2.53;;
2225;SDS011;1119;48.288;8.726;2023-01-15T14:14:47;4.20;;;2.20;;
2225;SDS011;1119;48.288;8.726;2023-01-15T14:17:31;2.00;;;1.90;;
2225;SDS011;1119;48.288;8.726;2023-01-15T14:20:29;1.70;;;1.70;;
2225;SDS011;1119;48.288;8.726;2023-01-15T14:23:10;2.10;;;2.05;;
2225;SDS011;1119;48.288;8.726;2023-01-15T14:26:01;1.97;;;1.97;;
2225;SDS011;1119;48.288;8.726;2023-01-15T14:28:42;2.90;;;2.80;;
2225;SDS011;1119;48.288;8.726;2023-01-15T14:34:17;2.80;;;2.70;;
2225;SDS011;1119;48.288;8.726;2023-01-15T14:36:50;2.50;;;2.40;;
2225;SDS011;1119;48.288;8.726;2023-01-15T14:39:26;2.03;;;2.03;;
2225;SDS011;1119;48.288;8.726;2023-01-15T14:42:05;1.93;;;1.93;;
2225;SDS011;1119;48.288;8.726;2023-01-15T14:44:55;2.17;;;2.17;;
2225;SDS011;1119;48.288;8.726;2023-01-15T14:47:27;2.67;;;2.57;;
2225;SDS011;1119;48.288;8.726;2023-01-15T14:52:57;2.58;;;2.35;;
2225;SDS011;1119;48.288;8.726;2023-01-15T14:55:29;2.47;;;2.37;;
2225;SDS011;1119;48.288;8.726;2023-01-15T14:58:00;3.57;;;3.23;;
2225;SDS011;1119;48.288;8.726;2023-01-15T15:00:34;2.63;;;2.30;;
2225;SDS011;1119;48.288;8.726;2023-01-15T15:03:11;1.80;;;1.80;;
2225;SDS011;1119;48.288;8.726;2023-01-15T15:05:42;2.53;;;1.95;;
2225;SDS011;1119;48.288;8.726;2023-01-15T15:08:12;2.63;;;2.53;;
2225;SDS011;1119;48.288;8.726;2023-01-15T15:10:42;2.33;;;2.22;;
2225;SDS011;1119;48.288;8.726;2023-01-15T15:13:13;2.07;;;1.87;;
2225;SDS011;1119;48.288;8.726;2023-01-15T15:15:53;1.77;;;1.77;;
2225;SDS011;1119;48.288;8.726;2023-01-15T15:18:33;3.70;;;2.30;;
2225;SDS011;1119;48.288;8.726;2023-01-15T15:21:07;2.40;;;2.20;;
2225;SDS011;1119;48.288;8.726;2023-01-15T15:23:41;2.67;;;2.50;;
2225;SDS011;1119;48.288;8.726;2023-01-15T15:26:19;3.20;;;2.30;;
2225;SDS011;1119;48.288;8.726;2023-01-15T15:28:56;3.37;;;2.47;;
2225;SDS011;1119;48.288;8.726;2023-01-15T15:31:25;2.50;;;2.30;;
2225;SDS011;1119;48.288;8.726;2023-01-15T15:33:56;3.08;;;2.78;;
2225;SDS011;1119;48.288;8.726;2023-01-15T15:36:25;6.33;;;2.40;;
2225;SDS011;1119;48.288;8.726;2023-01-15T15:38:56;3.67;;;3.05;;
2225;SDS011;1119;48.288;8.726;2023-01-15T15:41:28;3.80;;;2.37;;
2225;SDS011;1119;48.288;8.726;2023-01-15T15:44:17;3.28;;;3.08;;
2225;SDS011;1119;48.288;8.726;2023-01-15T15:47:18;14.20;;;3.03;;
2225;SDS011;1119;48.288;8.726;2023-01-15T15:50:00;3.03;;;2.92;;
2225;SDS011;1119;48.288;8.726;2023-01-15T15:52:27;3.07;;;2.90;;
2225;SDS011;1119;48.288;8.726;2023-01-15T15:54:57;2.60;;;2.50;;
2225;SDS011;1119;48.288;8.726;2023-01-15T15:57:25;2.80;;;2.60;;
2225;SDS011;1119;48.288;8.726;2023-01-15T15:59:56;3.83;;;2.20;;
2225;SDS011;1119;48.288;8.726;2023-01-15T16:02:25;2.37;;;2.27;;
2225;SDS011;1119;48.288;8.726;2023-01-15T16:05:00;4.00;;;3.23;;
2225;SDS011;1119;48.288;8.726;2023-01-15T16:07:30;2.60;;;2.50;;
2225;SDS011;1119;48.288;8.726;2023-01-15T16:10:02;2.72;;;2.58;;
2225;SDS011;1119;48.288;8.726;2023-01-15T16:12:40;2.00;;;2.00;;